createdAt,value
2022-09-06T00:01:31.962Z,49.71
2022-09-06T00:03:59.004Z,50.48
2022-09-06T00:06:25.845Z,50.29
2022-09-06T00:08:52.928Z,50.06
2022-09-06T00:11:20.142Z,49.94
2022-09-06T00:13:48.018Z,49.38
2022-09-06T00:16:19.326Z,49.63
2022-09-06T00:18:46.748Z,49.11
2022-09-06T00:21:24.188Z,49.52
2022-09-06T00:23:52.188Z,49.54
2022-09-06T00:26:20.061Z,48.83
2022-09-06T00:28:47.144Z,48.67
2022-09-06T00:31:17.142Z,48.97
2022-09-06T00:33:44.370Z,48.79
2022-09-06T00:36:12.580Z,47.88
2022-09-06T00:38:40.329Z,48.00
2022-09-06T00:41:09.511Z,48.53
2022-09-06T00:43:37.406Z,48.92
2022-09-06T00:46:06.127Z,48.66
2022-09-06T00:48:33.451Z,48.96
2022-09-06T00:51:04.098Z,49.01
2022-09-06T00:53:32.174Z,49.36
2022-09-06T00:55:59.415Z,49.08
2022-09-06T00:58:27.827Z,49.25
2022-09-06T01:00:54.784Z,48.69
2022-09-06T01:03:25.954Z,48.93
2022-09-06T01:06:20.339Z,49.08
2022-09-06T01:08:59.641Z,49.28
2022-09-06T01:11:47.983Z,49.34
2022-09-06T01:14:45.793Z,49.25
2022-09-06T01:17:50.759Z,49.46
2022-09-06T01:20:47.628Z,49.33
2022-09-06T01:23:36.413Z,49.46
2022-09-06T01:26:17.926Z,49.39
2022-09-06T01:28:46.759Z,49.46
2022-09-06T01:31:25.921Z,49.50
2022-09-06T01:34:11.998Z,49.18
2022-09-06T01:37:06.208Z,49.40
2022-09-06T01:39:34.798Z,49.22
2022-09-06T01:42:19.524Z,48.56
2022-09-06T01:44:53.733Z,49.02
2022-09-06T01:48:02.218Z,49.07
2022-09-06T01:50:43.889Z,48.52
2022-09-06T01:53:22.860Z,48.22
2022-09-06T01:56:01.618Z,48.52
2022-09-06T01:58:47.091Z,48.62
2022-09-06T02:02:12.750Z,48.68
2022-09-06T02:04:47.517Z,48.30
2022-09-06T02:07:23.435Z,49.32
2022-09-06T02:09:55.756Z,49.44
2022-09-06T02:12:26.994Z,49.40
2022-09-06T02:15:07.906Z,49.23
2022-09-06T02:17:41.543Z,48.42
2022-09-06T02:20:23.003Z,48.58
2022-09-06T02:22:53.303Z,48.37
2022-09-06T02:25:37.793Z,48.62
2022-09-06T02:28:07.121Z,48.01
2022-09-06T02:30:43.593Z,48.40
2022-09-06T02:33:16.928Z,48.37
2022-09-06T02:35:46.792Z,48.65
2022-09-06T02:38:14.143Z,48.38
2022-09-06T02:40:41.528Z,48.83
2022-09-06T02:43:08.994Z,48.68
2022-09-06T02:45:35.979Z,49.49
2022-09-06T02:48:03.248Z,48.46
2022-09-06T02:50:30.090Z,48.26
2022-09-06T02:53:11.800Z,48.08
2022-09-06T02:55:39.295Z,48.81
2022-09-06T02:58:08.333Z,49.00
2022-09-06T03:00:35.513Z,48.97
2022-09-06T03:03:02.498Z,49.33
2022-09-06T03:05:30.020Z,49.48
2022-09-06T03:07:57.888Z,49.76
2022-09-06T03:10:26.180Z,49.54
2022-09-06T03:12:53.429Z,49.55
2022-09-06T03:15:20.878Z,49.34
2022-09-06T03:17:47.822Z,49.86
2022-09-06T03:20:15.118Z,50.53
2022-09-06T03:22:42.622Z,49.78
2022-09-06T03:25:10.623Z,50.22
2022-09-06T03:27:38.035Z,49.52
2022-09-06T03:30:06.325Z,50.84
2022-09-06T03:32:33.816Z,50.41
2022-09-06T03:35:00.732Z,50.52
2022-09-06T03:37:28.086Z,50.74
2022-09-06T03:39:55.127Z,50.18
2022-09-06T03:42:22.179Z,50.47
2022-09-06T03:44:49.155Z,50.32
2022-09-06T03:47:19.425Z,50.90
2022-09-06T03:49:47.220Z,50.78
2022-09-06T03:52:14.762Z,49.86
2022-09-06T03:54:41.869Z,49.83
2022-09-06T03:57:08.959Z,49.29
2022-09-06T03:59:36.211Z,50.50
2022-09-06T04:02:03.720Z,50.37
2022-09-06T04:04:30.680Z,50.54
2022-09-06T04:06:57.600Z,50.49
2022-09-06T04:09:24.399Z,51.24
2022-09-06T04:11:51.615Z,51.47
2022-09-06T04:14:18.418Z,51.62
2022-09-06T04:16:45.630Z,51.58
2022-09-06T04:19:12.429Z,51.41
2022-09-06T04:21:39.624Z,51.54
2022-09-06T04:24:06.468Z,51.14
2022-09-06T04:26:33.686Z,51.53
2022-09-06T04:29:00.427Z,51.35
2022-09-06T04:31:27.576Z,51.28
2022-09-06T04:33:54.570Z,50.64
2022-09-06T04:36:21.424Z,51.05
2022-09-06T04:38:48.316Z,50.30
2022-09-06T04:41:17.552Z,50.04
2022-09-06T04:43:44.994Z,50.39
2022-09-06T04:46:24.972Z,50.76
2022-09-06T04:48:53.696Z,50.18
2022-09-06T04:51:21.024Z,50.17
2022-09-06T04:53:48.258Z,50.29
2022-09-06T04:56:18.371Z,49.90
2022-09-06T04:58:47.048Z,50.29
2022-09-06T05:01:15.020Z,50.82
2022-09-06T05:03:42.026Z,50.52
2022-09-06T05:06:12.132Z,50.79
2022-09-06T05:08:40.274Z,50.93
2022-09-06T05:11:08.463Z,51.40
2022-09-06T05:13:35.747Z,50.42
2022-09-06T05:16:05.326Z,50.61
2022-09-06T05:18:32.511Z,51.12
2022-09-06T05:20:59.461Z,50.43
2022-09-06T05:23:27.067Z,49.90
2022-09-06T05:25:54.430Z,50.56
2022-09-06T05:28:21.487Z,50.54
2022-09-06T05:30:48.432Z,51.53
2022-09-06T05:33:21.447Z,50.83
2022-09-06T05:35:49.404Z,50.57
2022-09-06T05:38:16.398Z,50.91
2022-09-06T05:40:43.529Z,51.46
2022-09-06T05:43:10.445Z,51.93
2022-09-06T05:45:37.332Z,51.20
2022-09-06T05:48:04.825Z,50.25
2022-09-06T05:50:31.594Z,50.04
2022-09-06T05:52:58.710Z,49.77
2022-09-06T05:55:25.780Z,49.80
2022-09-06T05:57:52.579Z,50.14
2022-09-06T06:00:20.051Z,51.08
2022-09-06T06:02:50.171Z,50.90
2022-09-06T06:05:17.283Z,51.54
2022-09-06T06:07:44.148Z,51.69
2022-09-06T06:10:11.261Z,51.21
2022-09-06T06:12:38.128Z,51.63
2022-09-06T06:15:05.986Z,50.35
2022-09-06T06:17:33.385Z,50.27
2022-09-06T06:20:00.290Z,51.21
2022-09-06T06:22:27.390Z,50.67
2022-09-06T06:24:54.238Z,51.30
2022-09-06T06:27:21.278Z,50.30
2022-09-06T06:29:49.016Z,49.76
2022-09-06T06:32:15.787Z,50.53
2022-09-06T06:34:42.690Z,50.95
2022-09-06T06:37:09.533Z,49.81
2022-09-06T06:39:37.216Z,49.06
2022-09-06T06:42:04.362Z,50.23
2022-09-06T06:44:41.308Z,48.95
2022-09-06T06:49:41.314Z,47.98
2022-09-06T06:52:08.092Z,46.76
2022-09-06T06:54:35.043Z,45.94
2022-09-06T06:57:01.977Z,44.41
2022-09-06T06:59:28.825Z,43.56
2022-09-06T07:01:55.852Z,44.18
2022-09-06T07:04:23.032Z,44.47
2022-09-06T07:12:30.485Z,45.84
2022-09-06T07:14:57.558Z,44.74
2022-09-06T07:17:24.328Z,45.79
2022-09-06T07:22:38.923Z,44.07
2022-09-06T07:25:06.874Z,44.56
2022-09-06T07:27:49.953Z,46.13
2022-09-06T07:30:19.433Z,45.36
2022-09-06T07:32:46.223Z,44.02
2022-09-06T07:35:14.287Z,43.48
2022-09-06T07:37:41.359Z,45.14
2022-09-06T07:40:09.005Z,44.84
2022-09-06T07:42:36.827Z,44.93
2022-09-06T07:45:05.284Z,44.21
2022-09-06T07:53:14.869Z,44.03
2022-09-06T07:55:44.751Z,44.24
2022-09-06T07:58:11.581Z,44.44
2022-09-06T08:00:41.431Z,45.94
2022-09-06T08:03:08.660Z,46.23
2022-09-06T08:11:09.923Z,45.83
2022-09-06T08:13:37.931Z,47.49
2022-09-06T08:16:07.437Z,47.11
2022-09-06T08:18:35.827Z,47.30
2022-09-06T08:21:12.986Z,46.51
2022-09-06T08:23:51.019Z,47.33
2022-09-06T08:26:21.067Z,47.61
2022-09-06T08:28:48.408Z,46.48
2022-09-06T08:31:17.585Z,46.54
2022-09-06T08:33:44.739Z,45.83
2022-09-06T08:36:12.081Z,46.01
2022-09-06T08:38:38.897Z,45.18
2022-09-06T08:41:26.448Z,45.95
2022-09-06T08:46:54.194Z,43.69
2022-09-06T08:49:21.526Z,45.13
2022-09-06T08:52:06.930Z,46.27
2022-09-06T08:55:06.091Z,46.30
2022-09-06T08:57:50.703Z,46.87
2022-09-06T09:00:19.521Z,46.37
2022-09-06T09:02:49.376Z,46.77
2022-09-06T09:05:25.833Z,47.35
2022-09-06T09:08:05.563Z,47.42
2022-09-06T09:10:42.403Z,46.05
2022-09-06T09:13:36.624Z,44.93
2022-09-06T09:16:05.287Z,44.34
2022-09-06T09:18:40.282Z,44.42
2022-09-06T09:21:07.205Z,45.28
2022-09-06T09:23:33.975Z,45.52
2022-09-06T09:26:05.747Z,45.57
2022-09-06T09:28:32.609Z,44.44
2022-09-06T09:30:59.784Z,44.12
2022-09-06T09:33:39.237Z,44.13
2022-09-06T09:36:12.998Z,44.45
2022-09-06T09:38:53.299Z,44.44
2022-09-06T09:41:33.488Z,44.52
2022-09-06T09:44:06.010Z,45.05
2022-09-06T09:46:35.226Z,43.92
2022-09-06T09:49:02.299Z,43.40
2022-09-06T09:51:30.894Z,43.05
2022-09-06T09:54:04.443Z,43.67
2022-09-06T09:56:37.196Z,42.87
2022-09-06T09:59:15.878Z,43.19
2022-09-06T10:01:42.963Z,42.64
2022-09-06T10:07:25.802Z,42.62
2022-09-06T10:10:00.701Z,44.70
2022-09-06T10:12:30.215Z,44.50
2022-09-06T10:14:57.936Z,45.51
2022-09-06T10:17:33.175Z,45.14
2022-09-06T10:20:04.097Z,44.99
2022-09-06T10:22:36.494Z,46.00
2022-09-06T10:25:28.638Z,46.21
2022-09-06T10:28:28.430Z,45.84
2022-09-06T10:31:02.513Z,45.85
2022-09-06T10:33:35.653Z,45.62
2022-09-06T10:36:03.854Z,45.55
2022-09-06T10:38:46.142Z,46.27
2022-09-06T10:41:43.205Z,45.76
2022-09-06T10:44:42.263Z,45.47
2022-09-06T10:47:12.765Z,45.97
2022-09-06T10:49:45.652Z,45.65
2022-09-06T10:52:20.046Z,45.42
2022-09-06T10:54:47.592Z,45.39
2022-09-06T11:00:15.820Z,45.41
2022-09-06T11:06:11.436Z,46.01
2022-09-06T11:08:53.290Z,46.02
2022-09-06T11:11:35.850Z,44.96
2022-09-06T11:14:11.853Z,44.16
2022-09-06T11:16:47.217Z,43.98
2022-09-06T11:19:27.446Z,44.51
2022-09-06T11:22:21.987Z,44.66
2022-09-06T11:25:24.696Z,43.43
2022-09-06T11:27:58.111Z,43.75
2022-09-06T11:30:27.067Z,43.87
2022-09-06T11:33:35.855Z,44.08
2022-09-06T11:36:24.253Z,43.95
2022-09-06T11:38:57.211Z,44.64
2022-09-06T11:41:33.577Z,44.77
2022-09-06T11:44:01.379Z,43.60
2022-09-06T11:46:34.392Z,43.72
2022-09-06T11:49:16.783Z,42.63
2022-09-06T11:51:44.814Z,42.08
2022-09-06T11:54:15.153Z,41.60
2022-09-06T11:57:21.495Z,42.61
2022-09-06T11:59:52.707Z,41.92
2022-09-06T12:02:42.366Z,42.71
2022-09-06T12:05:15.522Z,43.07
2022-09-06T12:08:24.034Z,43.21
2022-09-06T12:10:59.069Z,42.70
2022-09-06T12:13:51.732Z,43.09
2022-09-06T12:16:18.875Z,41.77
2022-09-06T12:18:48.867Z,41.92
2022-09-06T12:21:39.989Z,41.75
2022-09-06T12:24:34.639Z,42.21
2022-09-06T12:27:20.628Z,43.03
2022-09-06T12:29:55.091Z,43.08
2022-09-06T12:32:26.676Z,42.24
2022-09-06T12:38:08.490Z,41.62
2022-09-06T12:40:41.631Z,41.87
2022-09-06T12:43:11.788Z,40.97
2022-09-06T12:45:44.453Z,41.32
2022-09-06T12:48:25.539Z,41.47
2022-09-06T12:51:19.709Z,41.77
2022-09-06T12:53:55.807Z,42.82
2022-09-06T12:56:24.226Z,42.17
2022-09-06T12:58:51.427Z,42.02
2022-09-06T13:01:26.096Z,42.90
2022-09-06T13:04:05.627Z,42.39
2022-09-06T13:06:39.487Z,42.67
2022-09-06T13:09:10.984Z,42.06
2022-09-06T13:11:42.778Z,41.73
2022-09-06T13:14:18.103Z,41.48
2022-09-06T13:16:48.202Z,40.80
2022-09-06T13:19:16.392Z,41.17
2022-09-06T13:21:45.080Z,41.08
2022-09-06T13:24:46.805Z,40.20
2022-09-06T13:27:24.861Z,40.46
2022-09-06T13:30:03.139Z,39.60
2022-09-06T13:32:30.610Z,40.28
2022-09-06T13:34:59.846Z,39.63
2022-09-06T13:37:29.543Z,39.66
2022-09-06T13:39:57.854Z,40.07
2022-09-06T13:42:29.855Z,40.22
2022-09-06T13:45:01.909Z,39.50
2022-09-06T13:47:30.112Z,40.36
2022-09-06T13:49:56.946Z,40.83
2022-09-06T13:52:23.882Z,41.09
2022-09-06T13:54:50.938Z,41.46
2022-09-06T13:57:23.537Z,42.73
2022-09-06T13:59:51.404Z,42.26
2022-09-06T14:02:20.005Z,42.29
2022-09-06T14:04:47.376Z,42.15
2022-09-06T14:07:14.512Z,42.17
2022-09-06T14:09:41.480Z,41.30
2022-09-06T14:12:09.502Z,41.67
2022-09-06T14:14:36.615Z,40.91
2022-09-06T14:17:03.874Z,40.79
2022-09-06T14:19:30.863Z,41.45
2022-09-06T14:21:57.754Z,40.95
2022-09-06T14:24:24.866Z,40.76
2022-09-06T14:26:52.115Z,41.40
2022-09-06T14:29:19.345Z,40.97
2022-09-06T14:31:48.603Z,41.08
2022-09-06T14:34:15.470Z,40.84
2022-09-06T14:36:42.514Z,41.43
2022-09-06T14:39:09.354Z,40.04
2022-09-06T14:41:36.583Z,40.85
2022-09-06T14:44:04.061Z,40.82
2022-09-06T14:46:31.221Z,41.12
2022-09-06T14:49:07.352Z,41.93
2022-09-06T14:51:35.505Z,41.81
2022-09-06T14:54:06.915Z,42.58
2022-09-06T14:56:35.394Z,42.31
2022-09-06T14:59:02.331Z,42.62
2022-09-06T15:01:37.098Z,42.60
2022-09-06T15:04:06.720Z,42.64
2022-09-06T15:06:37.027Z,42.52
2022-09-06T15:09:05.478Z,42.53
2022-09-06T15:11:39.626Z,42.08
2022-09-06T15:14:12.430Z,42.09
2022-09-06T15:16:39.598Z,41.83
2022-09-06T15:19:07.915Z,41.92
2022-09-06T15:21:34.892Z,42.18
2022-09-06T15:24:02.690Z,42.59
2022-09-06T15:26:30.498Z,42.13
2022-09-06T15:28:57.592Z,41.98
2022-09-06T15:31:24.579Z,42.55
2022-09-06T15:33:52.116Z,42.20
2022-09-06T15:36:19.427Z,42.16
2022-09-06T15:38:48.882Z,42.28
2022-09-06T15:41:19.484Z,42.49
2022-09-06T15:43:48.528Z,42.33
2022-09-06T15:46:18.206Z,42.02
2022-09-06T15:48:47.104Z,42.33
2022-09-06T15:51:17.174Z,42.11
2022-09-06T15:53:44.845Z,42.39
2022-09-06T15:56:15.296Z,42.40
2022-09-06T15:58:42.293Z,42.64
2022-09-06T16:01:17.934Z,41.78
2022-09-06T16:03:53.003Z,42.25
2022-09-06T16:06:26.186Z,42.91
2022-09-06T16:09:09.459Z,43.00
2022-09-06T16:11:37.246Z,42.69
2022-09-06T16:14:06.799Z,43.01
2022-09-06T16:16:35.298Z,42.81
2022-09-06T16:19:02.770Z,42.32
2022-09-06T16:21:32.502Z,42.73
2022-09-06T16:24:04.321Z,42.71
2022-09-06T16:26:34.403Z,42.77
2022-09-06T16:29:02.404Z,42.97
2022-09-06T16:31:30.068Z,42.90
2022-09-06T16:33:58.159Z,42.94
2022-09-06T16:36:25.916Z,42.83
2022-09-06T16:38:53.103Z,43.38
2022-09-06T16:41:25.309Z,43.27
2022-09-06T16:43:53.385Z,43.16
2022-09-06T16:46:23.274Z,43.59
2022-09-06T16:48:55.627Z,43.62
2022-09-06T16:51:25.956Z,43.78
2022-09-06T16:53:53.783Z,43.83
2022-09-06T16:56:23.507Z,44.02
2022-09-06T16:58:55.955Z,44.55
2022-09-06T17:01:24.322Z,43.91
2022-09-06T17:03:51.882Z,44.46
2022-09-06T17:06:19.779Z,44.80
2022-09-06T17:08:46.777Z,45.15
2022-09-06T17:11:20.269Z,45.94
2022-09-06T17:13:49.763Z,45.45
2022-09-06T17:16:36.792Z,45.94
2022-09-06T17:19:05.065Z,46.22
2022-09-06T17:21:32.234Z,46.02
2022-09-06T17:24:05.243Z,46.17
2022-09-06T17:26:34.795Z,46.49
2022-09-06T17:29:02.048Z,46.63
2022-09-06T17:31:29.173Z,45.99
2022-09-06T17:36:36.625Z,46.58
2022-09-06T17:39:14.104Z,46.67
2022-09-06T17:41:42.867Z,46.74
2022-09-06T17:44:15.077Z,46.72
2022-09-06T17:46:56.919Z,47.51
2022-09-06T17:49:24.847Z,47.35
2022-09-06T17:51:52.263Z,47.00
2022-09-06T17:54:19.272Z,47.55
2022-09-06T17:56:46.458Z,47.39
2022-09-06T17:59:15.607Z,47.41
2022-09-06T18:01:45.533Z,46.82
2022-09-06T18:04:13.639Z,47.19
2022-09-06T18:06:42.558Z,47.32
2022-09-06T18:09:12.862Z,47.27
2022-09-06T18:11:40.246Z,47.76
2022-09-06T18:14:10.044Z,47.97
2022-09-06T18:16:39.227Z,47.70
2022-09-06T18:19:08.353Z,48.06
2022-09-06T18:21:38.944Z,48.15
2022-09-06T18:24:06.761Z,47.86
2022-09-06T18:26:33.618Z,47.76
2022-09-06T18:29:00.684Z,48.73
2022-09-06T18:31:28.574Z,49.06
2022-09-06T18:34:00.172Z,49.66
2022-09-06T18:36:31.791Z,49.73
2022-09-06T18:39:04.435Z,50.05
2022-09-06T18:41:50.427Z,50.36
2022-09-06T18:44:18.177Z,50.41
2022-09-06T18:46:45.592Z,50.79
2022-09-06T18:49:15.272Z,50.79
2022-09-06T18:51:43.216Z,50.86
2022-09-06T18:54:11.266Z,50.88
2022-09-06T18:56:38.754Z,51.01
2022-09-06T18:59:07.212Z,51.25
2022-09-06T19:01:35.405Z,51.73
2022-09-06T19:04:03.703Z,51.25
2022-09-06T19:06:32.759Z,51.90
2022-09-06T19:09:02.207Z,51.11
2022-09-06T19:11:29.559Z,50.95
2022-09-06T19:13:58.013Z,50.61
2022-09-06T19:16:26.900Z,50.28
2022-09-06T19:18:56.137Z,49.91
2022-09-06T19:21:25.629Z,50.23
2022-09-06T19:24:01.517Z,49.92
2022-09-06T19:26:31.733Z,49.24
2022-09-06T19:29:01.035Z,49.97
2022-09-06T19:31:30.884Z,50.54
2022-09-06T19:33:58.963Z,50.60
2022-09-06T19:36:27.900Z,50.62
2022-09-06T19:39:05.906Z,50.97
2022-09-06T19:41:36.831Z,50.70
2022-09-06T19:44:06.089Z,50.96
2022-09-06T19:46:34.997Z,50.90
2022-09-06T19:49:02.472Z,50.90
2022-09-06T19:51:29.341Z,51.30
2022-09-06T19:54:02.950Z,50.99
2022-09-06T19:56:33.397Z,51.02
2022-09-06T19:59:07.267Z,51.02
2022-09-06T20:01:35.733Z,51.16
2022-09-06T20:04:05.252Z,50.72
2022-09-06T20:06:32.431Z,50.97
2022-09-06T20:09:01.020Z,50.95
2022-09-06T20:11:30.654Z,50.95
2022-09-06T20:13:57.930Z,51.05
2022-09-06T20:16:25.474Z,50.84
2022-09-06T20:18:54.887Z,50.79
2022-09-06T20:21:21.933Z,50.92
2022-09-06T20:23:54.702Z,50.90
2022-09-06T20:26:23.932Z,51.12
2022-09-06T20:29:01.520Z,51.52
2022-09-06T20:31:30.565Z,51.28
2022-09-06T20:34:00.845Z,52.01
2022-09-06T20:36:28.496Z,51.30
2022-09-06T20:38:55.458Z,51.46
2022-09-06T20:41:26.851Z,50.96
2022-09-06T20:43:59.125Z,51.50
2022-09-06T20:46:29.129Z,51.13
2022-09-06T20:48:58.141Z,51.14
2022-09-06T20:51:25.588Z,50.62
2022-09-06T20:53:56.831Z,51.56
2022-09-06T20:56:26.707Z,51.43
2022-09-06T20:59:00.957Z,51.11
2022-09-06T21:01:30.844Z,52.24
2022-09-06T21:03:59.944Z,52.28
2022-09-06T21:06:29.299Z,52.35
2022-09-06T21:08:57.695Z,51.63
2022-09-06T21:11:25.027Z,51.27
2022-09-06T21:13:55.972Z,51.42
2022-09-06T21:16:25.449Z,50.70
2022-09-06T21:18:54.289Z,51.19
2022-09-06T21:21:22.440Z,51.54
2022-09-06T21:23:49.444Z,51.95
2022-09-06T21:26:17.292Z,51.81
2022-09-06T21:28:46.836Z,51.83
2022-09-06T21:31:16.270Z,52.68
2022-09-06T21:33:48.633Z,53.42
2022-09-06T21:36:18.146Z,52.74
2022-09-06T21:38:47.648Z,53.02
2022-09-06T21:41:16.879Z,53.18
2022-09-06T21:43:45.022Z,53.73
2022-09-06T21:46:17.704Z,53.58
2022-09-06T21:48:47.095Z,53.36
2022-09-06T21:51:16.523Z,53.59
2022-09-06T21:53:45.386Z,53.80
2022-09-06T21:56:13.124Z,54.25
2022-09-06T21:58:40.820Z,54.05
2022-09-06T22:01:08.390Z,54.22
2022-09-06T22:03:41.602Z,54.37
2022-09-06T22:06:10.804Z,55.37
2022-09-06T22:08:38.218Z,55.71
2022-09-06T22:11:16.332Z,55.87
2022-09-06T22:16:19.537Z,54.11
2022-09-06T22:18:48.942Z,54.95
2022-09-06T22:21:20.420Z,54.70
2022-09-06T22:23:56.138Z,54.25
2022-09-06T22:26:24.391Z,54.57
2022-09-06T22:28:56.870Z,54.51
2022-09-06T22:31:25.399Z,54.39
2022-09-06T22:33:53.128Z,54.65
2022-09-06T22:36:20.218Z,54.17
2022-09-06T22:38:47.300Z,53.86
2022-09-06T22:41:14.582Z,54.42
2022-09-06T22:43:41.383Z,54.60
2022-09-06T22:46:10.444Z,54.45
2022-09-06T22:48:37.711Z,54.29
2022-09-06T22:51:06.500Z,54.27
2022-09-06T22:53:34.104Z,53.80
2022-09-06T22:56:01.718Z,54.21
2022-09-06T22:58:29.082Z,54.08
2022-09-06T23:00:56.735Z,54.44
2022-09-06T23:03:23.909Z,54.75
2022-09-06T23:05:50.797Z,55.07
2022-09-06T23:08:17.869Z,55.16
2022-09-06T23:10:44.824Z,55.12
2022-09-06T23:13:11.864Z,54.26
2022-09-06T23:15:40.997Z,54.27
2022-09-06T23:18:08.587Z,54.35
2022-09-06T23:20:37.448Z,54.94
2022-09-06T23:23:05.457Z,55.33
2022-09-06T23:25:32.592Z,55.84
2022-09-06T23:28:00.404Z,55.94
2022-09-06T23:30:27.445Z,55.45
2022-09-06T23:32:57.263Z,55.34
2022-09-06T23:35:24.541Z,55.31
2022-09-06T23:37:51.772Z,55.51
2022-09-06T23:40:19.727Z,55.07
2022-09-06T23:42:47.269Z,55.73
2022-09-06T23:45:14.444Z,55.24
2022-09-06T23:47:41.719Z,55.07
2022-09-06T23:50:09.556Z,54.77
2022-09-06T23:52:36.447Z,54.54
2022-09-06T23:55:04.067Z,55.88
2022-09-06T23:57:31.126Z,55.25
2022-09-06T23:59:57.953Z,55.83
